Meath Environmental Platform

Observations for Trim Patrick St

Time AQI Temp °C Hum % Pres Pa CO μg/m³ H₂S μg/m³ NO μg/m³ NO₂ μg/m³ O₃ μg/m³ SO₂ μg/m³ PM1 μg/m³ PM2.5 μg/m³ PM10 μg/m³
Monday 3 August 2026
17:46 4 25.7 38 68,991 0 15.5 0.91 19.1 118.61 9.53 5.43 15.07 16.58
17:45 4 25.8 38 68,993 0 16.59 0.94 20.49 140.34 9.73 4.57 11.15 12.27
17:43 4 25.9 37 69,039 0 13.87 0.93 18.57 109.7 9.27 3.71 9.58 10.54
17:42 4 26 37 69,055 0 13.76 0.92 19.77 101.43 8.82 3.71 10.38 11.41
17:41 4 26 37 69,051 0 14.98 0.93 19.06 123.4 9.63 3.71 9.61 10.57
17:40 4 26.1 37 69,049 0 16.12 0.93 19.82 124.65 10.15 3.71 8.81 9.69
17:39 4 26.1 37 69,045 0 13.41 0.94 20.78 110.88 9.71 2.86 8.84 9.72
17:38 4 26.2 37 69,037 0 14.55 0.94 21.19 132.12 9.64 3.71 10.4 11.44
17:37 4 26.3 37 69,025 0 13.9 0.94 19.86 122.23 10.23 3.71 10.38 11.42
17:36 4 26.3 36 69,033 0 12.73 0.94 18 104.45 9.82 3.71 8.87 9.76
17:34 4 26.5 37 69,067 0 14.88 0.95 20.98 120.67 10.47 3.71 9.63 10.6
17:33 4 26.5 36 69,059 0 15.01 0.98 21.21 136.33 9.76 2.86 9.67 10.64
17:32 4 26.6 36 69,053 0 14.16 1 20.67 119.27 9.66 3.71 9.67 10.64
17:30 4 26.7 36 69,069 0 14.39 0.95 20.64 155.09 10.83 3.71 10.49 11.54
16:27 3 28.4 32 69,161 0 2.02 1.19 14.72 141.13 10.03 3.71 9.96 10.96
16:26 3 28.4 31 69,177 0 3.49 1.17 18.48 157.25 11.11 4.57 10.8 11.88
16:25 3 28.4 30 69,189 0 0 1.22 18.29 184.08 10.15 2.86 9.29 10.21
16:24 3 28.5 31 69,183 0 0 1.22 11.72 99.01 8.52 2.86 9.25 10.17
16:23 3 28.5 30 69,171 0 0 1.26 12.97 101.48 8.59 2.86 9.27 10.19
16:22 3 28.6 30 69,183 0 0 1.25 10.2 83.79 7.63 2.86 8.49 9.34